Dittmer, Missouri
Current Conditions -  °F | °C
As of 8:24 AM on Saturday 25 Oct 2014 (Local Time) from KSUS Reporting Station
Light Fog Light Fog  
Wind Chill: 54°   Ceiling: Unl
Heat Index: 54°   Visibility: 4mi
Dew Point: 54°   Wind: 0mph
Humidity: 100%   Direction: NA
Pressure: 30.04"   Gusts: NA
Location:  38.34°N, 90.69°W
Report Text: KSUS 251324Z 00000KT 4SM R08R/1400V4000FT MIFG CLR 12/12 A3004 RMK AO2
Loading
Personal Weather Stations






























Interactive Weather Map
Tropical Storm Tracking
New forecast layout! Learn more

10-Day Weather Forecast

Advertisements
Track Severe Weather on mobile